KIOW

Iowa City Municipal Airport

Iowa City, Iowa, USA
METAR KIOW 190252Z AUTO 20007KT 10SM CLR M01/M07 A2999 RMK AO2 SLP164 T10061067 56006
Observed Flight Rules
Jan-19 @ 02:52 UTC (46 minutes ago) Visual Flight Rules
Wind Visibility Clouds
200° at 7 knots 10 miles
  • Clear skies
Temperatures Readings
Current -1°C / 30°F
Dewpoint -7°C / 19°F
Humidity 64%
Altimeter 29.99" Hg
Pressure 1016.4 hPa
Elevation 198
METAR KIOW 190252Z AUTO 20007KT 10SM CLR M01/M07 A2999 RMK AO2 SLP164 T10061067 56006
Observed Flight Rules
Jan-19 @ 02:52 UTC
(46 minutes ago)
VFR
Wind Visibility
200° at 7 knots 10 miles
Clouds
  • Clear skies
Temperature Dewpoint
-1°C / 30°F -7°C / 19°F
Humidity Altimeter Pressure
64% 29.99" Hg 1016.4 hPa